Řízení letového provozu České republiky
Letiste: LKLN Aktualizace: 19.09.2018 19:00:06  UTC
 METAR LKLN 19.09. 19:00 ...
METAR LKLN 191900Z AUTO 24004KT 210V280 CAVOK 21/14 Q1021=